Time;durP1;ratioP1;P1;durP2;ratioP2;P2;SDS_P1;SDS_P2;PMS_P1;PMS_P2;Temp;Humidity;BMP_temperature;BMP_pressure;BME280_temperature;BME280_humidity;BME280_pressure;Samples;Min_cycle;Max_cycle;Signal;HPM_P1;HPM_P2
2021/08/09 00:00:32;;;;;;;;;;;;;;;16.65;100.00;98172.63;5076395;28;19946;-76
2021/08/09 00:03:00;;;;;;;;;;;;;;;16.43;100.00;98179.88;5075327;28;19924;-76
2021/08/09 00:05:27;;;;;;;;;;;;;;;16.57;100.00;98171.44;5076014;28;19928;-76
2021/08/09 00:07:54;;;;;;;;;;;;;;;16.01;100.00;98178.00;5076073;28;19984;-76
2021/08/09 00:10:21;;;;;;;;;;;;;;;16.03;100.00;98181.13;5076151;28;19972;-76
2021/08/09 00:12:48;;;;;;;;;;;;;;;15.71;100.00;98182.00;5076149;28;19928;-76
2021/08/09 00:15:15;;;;;;;;;;;;;;;15.69;100.00;98181.69;5074931;28;19925;-76
2021/08/09 00:17:42;;;;;;;;;;;;;;;16.23;100.00;98177.69;5074596;28;19925;-76
2021/08/09 00:20:11;;;;;;;;;;;;;;;16.43;100.00;98177.03;5074537;28;20006;-76
2021/08/09 00:22:38;;;;;;;;;;;;;;;16.62;100.00;98182.06;5074710;28;19924;-76
2021/08/09 00:25:06;;;;;;;;;;;;;;;16.59;100.00;98173.78;5075916;28;19956;-76
2021/08/09 00:27:35;;;;;;;;;;;;;;;16.54;100.00;98180.13;5091273;28;19986;-76
2021/08/09 00:30:02;;;;;;;;;;;;;;;16.83;100.00;98174.47;5074551;28;19936;-76
2021/08/09 00:32:30;;;;;;;;;;;;;;;16.97;100.00;98162.41;5074596;28;20011;-76
2021/08/09 00:35:00;;;;;;;;;;;;;;;17.07;100.00;98166.69;5058179;28;20256;-76
2021/08/09 00:37:28;;;;;;;;;;;;;;;17.00;100.00;98161.44;5108278;28;19932;-76
2021/08/09 00:40:01;;;;;;;;;;;;;;;17.11;100.00;98167.25;5074396;28;19931;-76
2021/08/09 00:42:29;;;;;;;;;;;;;;;16.35;100.00;98161.75;5057742;28;19931;-76
2021/08/09 00:45:03;;;;;;;;;;;;;;;16.97;100.00;98165.22;5089936;28;19928;-76
2021/08/09 00:47:31;;;;;;;;;;;;;;;16.88;100.00;98165.34;5057659;28;19925;-76
2021/08/09 00:50:00;;;;;;;;;;;;;;;17.20;100.00;98164.31;5074270;28;19925;-76
2021/08/09 00:52:29;;;;;;;;;;;;;;;16.94;100.00;98163.38;5057416;28;19967;-76
2021/08/09 00:54:57;;;;;;;;;;;;;;;16.70;100.00;98166.31;5074011;28;19963;-77
2021/08/09 00:57:24;;;;;;;;;;;;;;;16.98;100.00;98164.75;5073884;28;19932;-76
2021/08/09 00:59:54;;;;;;;;;;;;;;;16.63;100.00;98172.31;5074056;28;19925;-76
2021/08/09 01:02:21;;;;;;;;;;;;;;;17.00;100.00;98167.84;5074938;28;19925;-76
2021/08/09 01:04:48;;;;;;;;;;;;;;;17.39;100.00;98157.97;5076842;28;19931;-76
2021/08/09 01:07:19;;;;;;;;;;;;;;;17.41;100.00;98160.28;5074045;28;19925;-76
2021/08/09 01:09:52;;;;;;;;;;;;;;;17.44;100.00;98164.97;5059883;28;19929;-76
2021/08/09 01:12:34;;;;;;;;;;;;;;;17.60;100.00;98161.63;5107691;28;19928;-76
2021/08/09 01:15:09;;;;;;;;;;;;;;;17.23;100.00;98154.88;5073723;28;19932;-76
2021/08/09 01:17:45;;;;;;;;;;;;;;;17.55;100.00;98156.69;5056912;28;19925;-76
2021/08/09 01:20:20;;;;;;;;;;;;;;;17.45;100.00;98158.06;5073647;28;19924;-76
2021/08/09 01:22:54;;;;;;;;;;;;;;;17.55;100.00;98162.34;5073386;28;19928;-77
2021/08/09 01:25:29;;;;;;;;;;;;;;;17.67;100.00;98156.34;5107272;28;19925;-76
2021/08/09 01:27:58;;;;;;;;;;;;;;;17.69;100.00;98167.16;5056648;28;20306;-75
2021/08/09 01:30:26;;;;;;;;;;;;;;;17.73;100.00;98162.06;5073436;28;19928;-75
2021/08/09 01:32:54;;;;;;;;;;;;;;;17.73;100.00;98159.25;5072709;28;19970;-76
2021/08/09 01:35:23;;;;;;;;;;;;;;;17.75;100.00;98168.00;5060140;28;19925;-76
2021/08/09 01:37:54;;;;;;;;;;;;;;;17.22;100.00;98173.84;5073494;28;19928;-76
2021/08/09 01:40:24;;;;;;;;;;;;;;;16.65;100.00;98175.44;5073265;28;19924;-76
2021/08/09 01:42:53;;;;;;;;;;;;;;;17.01;100.00;98175.06;5073184;28;19925;-76
2021/08/09 01:45:21;;;;;;;;;;;;;;;17.28;100.00;98171.91;5072756;28;19928;-75
2021/08/09 01:47:50;;;;;;;;;;;;;;;17.46;100.00;98165.28;5073311;28;19924;-75
2021/08/09 01:50:18;;;;;;;;;;;;;;;17.04;100.00;98171.25;5073150;28;19928;-76
2021/08/09 01:52:47;;;;;;;;;;;;;;;16.85;100.00;98178.38;5068280;28;19964;-76
2021/08/09 01:55:16;;;;;;;;;;;;;;;17.05;100.00;98169.22;5029051;28;19925;-76
2021/08/09 01:57:49;;;;;;;;;;;;;;;17.30;100.00;98180.66;5089340;28;19925;-76
2021/08/09 02:00:17;;;;;;;;;;;;;;;17.48;100.00;98169.16;5062666;28;19928;-76
2021/08/09 02:02:48;;;;;;;;;;;;;;;17.54;100.00;98172.06;5069368;28;19932;-76
2021/08/09 02:05:17;;;;;;;;;;;;;;;17.65;100.00;98172.22;5056195;28;19931;-76
2021/08/09 02:07:59;;;;;;;;;;;;;;;17.75;100.00;98163.13;5089689;28;19982;-76
2021/08/09 02:10:30;;;;;;;;;;;;;;;17.62;100.00;98171.16;5073273;28;19985;-77
2021/08/09 02:13:16;;;;;;;;;;;;;;;17.64;100.00;98170.69;5072907;28;19924;-76
2021/08/09 02:15:50;;;;;;;;;;;;;;;17.54;100.00;98177.69;5072483;28;19928;-76
2021/08/09 02:18:23;;;;;;;;;;;;;;;16.93;100.00;98185.19;5089657;28;19925;-76
2021/08/09 02:20:54;;;;;;;;;;;;;;;16.73;100.00;98190.72;5045309;28;19924;-76
2021/08/09 02:23:28;;;;;;;;;;;;;;;17.07;100.00;98180.81;5071343;28;19925;-76
2021/08/09 02:25:56;;;;;;;;;;;;;;;17.47;100.00;98166.81;5055820;28;20015;-77
2021/08/09 02:28:25;;;;;;;;;;;;;;;17.46;100.00;98160.38;5062087;28;19931;-76
2021/08/09 02:30:55;;;;;;;;;;;;;;;17.45;100.00;98163.72;5072157;28;19931;-76
2021/08/09 02:33:26;;;;;;;;;;;;;;;17.41;100.00;98160.28;5072535;28;19924;-76
2021/08/09 02:35:54;;;;;;;;;;;;;;;16.77;100.00;98160.28;5072320;28;19932;-76
2021/08/09 02:38:23;;;;;;;;;;;;;;;17.07;100.00;98161.06;5072283;28;19924;-76
2021/08/09 02:40:50;;;;;;;;;;;;;;;17.20;100.00;98161.50;5072342;28;20389;-76
2021/08/09 02:43:17;;;;;;;;;;;;;;;17.03;100.00;98154.81;5044547;28;19928;-76
2021/08/09 02:46:31;;;;;;;;;;;;;;;17.35;100.00;98167.91;5073283;28;19928;-76
2021/08/09 02:48:59;;;;;;;;;;;;;;;17.41;100.00;98151.81;5089196;28;19924;-76
2021/08/09 02:51:26;;;;;;;;;;;;;;;17.30;100.00;98148.81;5088992;28;19978;-77
2021/08/09 02:53:53;;;;;;;;;;;;;;;16.98;100.00;98149.88;5073404;28;19924;-76
2021/08/09 02:56:23;;;;;;;;;;;;;;;17.23;100.00;98152.84;5072012;28;20012;-76
2021/08/09 02:58:51;;;;;;;;;;;;;;;17.41;100.00;98152.59;5071932;28;19931;-76
2021/08/09 03:01:18;;;;;;;;;;;;;;;16.52;100.00;98160.06;5071972;28;20047;-76
2021/08/09 03:03:51;;;;;;;;;;;;;;;17.01;100.00;98160.94;5041664;28;19928;-76
2021/08/09 03:06:19;;;;;;;;;;;;;;;16.98;100.00;98149.88;5072016;28;19924;-76
2021/08/09 03:08:47;;;;;;;;;;;;;;;16.78;100.00;98161.81;5088651;28;19978;-76
2021/08/09 03:11:14;;;;;;;;;;;;;;;17.06;100.00;98154.63;5073258;28;19925;-76
2021/08/09 03:13:48;;;;;;;;;;;;;;;17.06;100.00;98154.63;5071829;28;20019;-76
2021/08/09 03:16:16;;;;;;;;;;;;;;;17.00;100.00;98161.44;5105754;28;19924;-76
2021/08/09 03:18:43;;;;;;;;;;;;;;;17.33;100.00;98150.66;5071958;28;19944;-76
2021/08/09 03:21:10;;;;;;;;;;;;;;;17.31;100.00;98153.97;5072518;28;19948;-76
2021/08/09 03:23:39;;;;;;;;;;;;;;;16.96;100.00;98152.41;5075772;28;19931;-76
2021/08/09 03:26:07;;;;;;;;;;;;;;;16.91;100.00;98153.06;5059647;28;20032;-76
2021/08/09 03:28:35;;;;;;;;;;;;;;;16.42;100.00;98161.41;5075863;28;19947;-76
2021/08/09 03:31:03;;;;;;;;;;;;;;;16.92;100.00;98155.41;5031805;28;19928;-76
2021/08/09 03:33:32;;;;;;;;;;;;;;;16.85;100.00;98157.84;5075823;28;19943;-76
2021/08/09 03:36:00;;;;;;;;;;;;;;;16.87;100.00;98164.56;5075340;28;19928;-76
2021/08/09 03:38:27;;;;;;;;;;;;;;;16.79;100.00;98165.44;5075865;28;19924;-76
2021/08/09 03:40:55;;;;;;;;;;;;;;;16.12;100.00;98171.81;5058970;28;19924;-76
2021/08/09 03:43:22;;;;;;;;;;;;;;;16.40;100.00;98180.84;5058879;28;19924;-76
2021/08/09 03:45:50;;;;;;;;;;;;;;;17.04;100.00;98179.72;5075460;28;19947;-76
2021/08/09 03:48:17;;;;;;;;;;;;;;;17.50;100.00;98177.94;5059092;28;20279;-77
2021/08/09 03:50:44;;;;;;;;;;;;;;;17.64;100.00;98171.47;5076277;28;20483;-76
2021/08/09 03:53:11;;;;;;;;;;;;;;;17.40;100.00;98167.22;5075379;28;19925;-76
2021/08/09 03:55:38;;;;;;;;;;;;;;;17.45;100.00;98170.13;5108982;28;19956;-76
2021/08/09 03:58:06;;;;;;;;;;;;;;;17.83;100.00;98171.97;5075133;28;19994;-76
2021/08/09 04:00:33;;;;;;;;;;;;;;;17.87;100.00;98166.91;5058672;28;19928;-77
2021/08/09 04:03:01;;;;;;;;;;;;;;;17.55;100.00;98173.63;5058355;28;20327;-77
2021/08/09 04:05:36;;;;;;;;;;;;;;;17.62;100.00;98174.00;5109145;28;19925;-76
2021/08/09 04:08:03;;;;;;;;;;;;;;;17.65;100.00;98172.22;5091788;28;19925;-76
2021/08/09 04:10:31;;;;;;;;;;;;;;;17.99;100.00;98182.72;5074701;28;19931;-77
2021/08/09 04:12:59;;;;;;;;;;;;;;;18.02;100.00;98173.25;5042717;28;20302;-76
2021/08/09 04:15:27;;;;;;;;;;;;;;;18.07;100.00;98181.00;5074747;28;19924;-76
2021/08/09 04:17:55;;;;;;;;;;;;;;;18.19;100.00;98179.88;5074854;28;20034;-76
2021/08/09 04:20:23;;;;;;;;;;;;;;;18.23;100.00;98182.50;5074794;28;19947;-76
2021/08/09 04:22:50;;;;;;;;;;;;;;;17.96;100.00;98178.81;5074669;28;19925;-76
2021/08/09 04:25:18;;;;;;;;;;;;;;;17.29;100.00;98181.16;5057919;28;19982;-77
2021/08/09 04:27:46;;;;;;;;;;;;;;;17.81;100.00;98186.56;5074271;28;20384;-76
2021/08/09 04:30:13;;;;;;;;;;;;;;;18.03;100.00;98180.44;5074703;28;20394;-76
2021/08/09 04:32:45;;;;;;;;;;;;;;;17.85;100.00;98180.72;5074153;28;19977;-77
2021/08/09 04:35:15;;;;;;;;;;;;;;;17.40;100.00;98184.16;5074428;28;19935;-76
2021/08/09 04:37:47;;;;;;;;;;;;;;;17.36;100.00;98183.56;5074537;28;19924;-77
2021/08/09 04:40:14;;;;;;;;;;;;;;;17.70;100.00;98185.66;5057797;28;19932;-76
2021/08/09 04:42:44;;;;;;;;;;;;;;;18.19;100.00;98170.63;5074193;28;19924;-76
2021/08/09 04:45:14;;;;;;;;;;;;;;;16.81;100.00;98191.13;5074429;28;19940;-76
2021/08/09 04:47:41;;;;;;;;;;;;;;;17.60;100.00;98182.16;5074035;28;20106;-77
2021/08/09 04:50:10;;;;;;;;;;;;;;;17.88;100.00;98191.03;5074310;28;19928;-76
2021/08/09 04:52:39;;;;;;;;;;;;;;;18.16;100.00;98192.16;5057397;28;19959;-76
2021/08/09 04:55:06;;;;;;;;;;;;;;;18.45;100.00;98182.78;5073851;28;20297;-76
2021/08/09 04:57:33;;;;;;;;;;;;;;;18.38;100.00;98180.38;5073972;28;19928;-76
2021/08/09 05:00:01;;;;;;;;;;;;;;;17.92;100.00;98181.09;5075080;28;19925;-76
2021/08/09 05:02:30;;;;;;;;;;;;;;;18.09;100.00;98186.94;5072158;28;19947;-76
2021/08/09 05:05:00;;;;;;;;;;;;;;;18.14;100.00;98186.25;5063548;28;19971;-77
2021/08/09 05:07:28;;;;;;;;;;;;;;;18.38;100.00;98178.34;5068151;28;19924;-77
2021/08/09 05:09:55;;;;;;;;;;;;;;;18.60;100.00;98183.47;5057693;28;19924;-76
2021/08/09 05:12:22;;;;;;;;;;;;;;;18.52;100.00;98180.31;5068076;28;19925;-76
2021/08/09 05:14:54;;;;;;;;;;;;;;;17.93;100.00;98182.63;5062635;28;19975;-76
2021/08/09 05:17:22;;;;;;;;;;;;;;;17.74;100.00;98187.00;5067419;28;19924;-76
2021/08/09 05:19:49;;;;;;;;;;;;;;;18.03;100.00;98183.28;5064049;28;20023;-76
2021/08/09 05:22:16;;;;;;;;;;;;;;;17.57;100.00;98185.97;5065704;28;19925;-76
2021/08/09 05:24:45;;;;;;;;;;;;;;;17.58;100.00;98184.69;5065935;28;19925;-76
2021/08/09 05:27:12;;;;;;;;;;;;;;;17.18;100.00;98189.44;5053428;28;19925;-76
2021/08/09 05:29:39;;;;;;;;;;;;;;;17.28;100.00;98193.72;5061567;28;19929;-76
2021/08/09 05:32:07;;;;;;;;;;;;;;;17.35;100.00;98193.31;5054303;28;19925;-76
2021/08/09 05:34:36;;;;;;;;;;;;;;;17.39;100.00;98188.22;5067530;28;19925;-76
2021/08/09 05:37:03;;;;;;;;;;;;;;;17.59;100.00;98185.50;5061906;28;19928;-76
2021/08/09 05:39:32;;;;;;;;;;;;;;;17.53;100.00;98187.44;5051156;28;19924;-76
2021/08/09 05:42:00;;;;;;;;;;;;;;;17.61;100.00;98197.09;5060416;28;19935;-76
2021/08/09 05:44:27;;;;;;;;;;;;;;;17.94;100.00;98195.50;5060618;28;19925;-76
2021/08/09 05:46:54;;;;;;;;;;;;;;;18.31;100.00;98190.03;5055247;28;19955;-76
2021/08/09 05:49:22;;;;;;;;;;;;;;;18.66;100.00;98187.13;5047632;28;20031;-77
2021/08/09 05:51:53;;;;;;;;;;;;;;;18.57;100.00;98182.41;5044711;28;19932;-78
2021/08/09 05:54:20;;;;;;;;;;;;;;;18.64;100.00;98186.84;5052459;28;19924;-78
2021/08/09 05:56:47;;;;;;;;;;;;;;;19.10;100.00;98185.50;5035315;28;20026;-79
2021/08/09 05:59:15;;;;;;;;;;;;;;;19.16;100.00;98185.56;5052074;28;19924;-78
2021/08/09 06:01:44;;;;;;;;;;;;;;;19.52;100.00;98185.59;5057494;28;19974;-78
2021/08/09 06:04:13;;;;;;;;;;;;;;;19.44;100.00;98189.41;5070620;28;20371;-80
2021/08/09 06:06:43;;;;;;;;;;;;;;;19.36;100.00;98183.41;5052864;28;19925;-80
2021/08/09 06:09:16;;;;;;;;;;;;;;;19.08;100.00;98185.22;5050386;28;19925;-79
2021/08/09 06:11:43;;;;;;;;;;;;;;;18.84;100.00;98181.13;5063929;28;20011;-78
2021/08/09 06:14:11;;;;;;;;;;;;;;;18.82;100.00;98184.47;5068651;28;19928;-79
2021/08/09 06:16:39;;;;;;;;;;;;;;;18.70;100.00;98182.81;5050793;28;19924;-78
2021/08/09 06:19:10;;;;;;;;;;;;;;;19.00;100.00;98186.94;5050085;28;19924;-79
2021/08/09 06:21:37;;;;;;;;;;;;;;;18.99;100.00;98188.22;5017251;28;19963;-80
2021/08/09 06:24:04;;;;;;;;;;;;;;;19.29;100.00;98188.78;5056902;28;19924;-79
2021/08/09 06:26:32;;;;;;;;;;;;;;;19.20;100.00;98203.88;5061055;28;19925;-79
2021/08/09 06:29:00;;;;;;;;;;;;;;;19.73;100.00;98201.19;5067252;28;20034;-79
2021/08/09 06:31:27;;;;;;;;;;;;;;;19.16;100.00;98191.97;5075203;28;20028;-79
2021/08/09 06:33:55;;;;;;;;;;;;;;;20.03;100.00;98192.34;5051853;28;19925;-79
2021/08/09 06:36:29;;;;;;;;;;;;;;;19.89;100.00;98194.06;5064765;28;19928;-79
2021/08/09 06:38:56;;;;;;;;;;;;;;;19.49;100.00;98200.00;5053788;28;19931;-79
2021/08/09 06:41:28;;;;;;;;;;;;;;;19.92;100.00;98195.13;5038451;28;19925;-79
2021/08/09 06:44:07;;;;;;;;;;;;;;;19.96;100.00;98189.97;5056854;28;19971;-79
2021/08/09 06:46:34;;;;;;;;;;;;;;;19.42;100.00;98197.63;5060994;28;19924;-78
2021/08/09 06:49:01;;;;;;;;;;;;;;;19.57;100.00;98192.56;5053952;28;19931;-78
2021/08/09 06:51:28;;;;;;;;;;;;;;;19.73;100.00;98199.63;5051931;28;19928;-78
2021/08/09 06:53:55;;;;;;;;;;;;;;;19.34;100.00;98202.22;5036117;28;19929;-78
2021/08/09 06:56:23;;;;;;;;;;;;;;;19.89;100.00;98202.56;5051614;28;19939;-79
2021/08/09 06:58:52;;;;;;;;;;;;;;;19.97;100.00;98209.31;5037631;28;19925;-79
2021/08/09 07:01:19;;;;;;;;;;;;;;;19.82;100.00;98205.09;5054444;28;20011;-79
2021/08/09 07:03:46;;;;;;;;;;;;;;;19.76;100.00;98209.97;5057822;28;20011;-79
2021/08/09 07:06:21;;;;;;;;;;;;;;;19.61;100.00;98205.22;5060194;28;19924;-79
2021/08/09 07:08:53;;;;;;;;;;;;;;;19.39;100.00;98210.72;5071942;28;20279;-79
2021/08/09 07:11:21;;;;;;;;;;;;;;;19.53;100.00;98211.88;5072450;28;19982;-79
2021/08/09 07:13:51;;;;;;;;;;;;;;;19.59;100.00;98213.47;5053692;28;19976;-79
2021/08/09 07:16:23;;;;;;;;;;;;;;;19.84;100.00;98205.38;5078761;28;20427;-79
2021/08/09 07:18:51;;;;;;;;;;;;;;;19.66;100.00;98224.31;5045978;28;19933;-79
2021/08/09 07:21:18;;;;;;;;;;;;;;;19.79;100.00;98220.28;5065880;28;19932;-79
2021/08/09 07:23:46;;;;;;;;;;;;;;;19.08;100.00;98216.38;5068951;28;19925;-79
2021/08/09 07:26:13;;;;;;;;;;;;;;;19.01;100.00;98224.50;5052407;28;20019;-79
2021/08/09 07:28:41;;;;;;;;;;;;;;;19.17;100.00;98210.53;5068829;28;20423;-79
2021/08/09 07:31:08;;;;;;;;;;;;;;;19.07;100.00;98223.28;5051922;28;20013;-78
2021/08/09 07:33:36;;;;;;;;;;;;;;;19.48;100.00;98219.03;5031870;28;19925;-78
2021/08/09 07:36:05;;;;;;;;;;;;;;;19.84;100.00;98222.38;5044453;28;19929;-78
2021/08/09 07:38:33;;;;;;;;;;;;;;;20.15;100.00;98217.44;5068708;28;19936;-78
2021/08/09 07:41:02;;;;;;;;;;;;;;;21.02;100.00;98223.94;5068184;28;19932;-78
2021/08/09 07:43:30;;;;;;;;;;;;;;;19.42;100.00;98223.91;5048814;28;19932;-78
2021/08/09 07:45:57;;;;;;;;;;;;;;;18.00;100.00;98237.97;5045605;28;19928;-78
2021/08/09 07:48:24;;;;;;;;;;;;;;;17.88;100.00;98247.56;5051184;28;19925;-78
2021/08/09 07:50:52;;;;;;;;;;;;;;;18.03;100.00;98248.28;5068199;28;19974;-78
2021/08/09 07:53:23;;;;;;;;;;;;;;;18.07;100.00;98248.84;5051209;28;20537;-78
2021/08/09 07:55:52;;;;;;;;;;;;;;;17.89;100.00;98246.28;5062054;28;19929;-78
2021/08/09 07:58:20;;;;;;;;;;;;;;;17.60;100.00;98260.47;5064964;28;20281;-78
2021/08/09 08:00:48;;;;;;;;;;;;;;;17.68;100.00;98258.81;5041750;28;19931;-79
2021/08/09 08:03:15;;;;;;;;;;;;;;;18.11;100.00;98259.94;5045111;28;19929;-79
2021/08/09 08:05:45;;;;;;;;;;;;;;;18.36;100.00;98260.03;5021167;28;20024;-77
2021/08/09 08:08:13;;;;;;;;;;;;;;;18.28;100.00;98260.97;5078969;28;19925;-78
2021/08/09 08:10:40;;;;;;;;;;;;;;;17.95;100.00;98264.09;5059032;28;20276;-77
2021/08/09 08:13:07;;;;;;;;;;;;;;;18.16;100.00;98256.44;5038294;28;19936;-77
2021/08/09 08:15:35;;;;;;;;;;;;;;;18.35;100.00;98258.47;5056881;28;19948;-77
2021/08/09 08:18:03;;;;;;;;;;;;;;;18.34;100.00;98256.16;5055881;28;19933;-77
2021/08/09 08:20:30;;;;;;;;;;;;;;;18.40;100.00;98249.34;5057077;28;19935;-77
2021/08/09 08:23:01;;;;;;;;;;;;;;;18.29;100.00;98260.47;5055926;28;20368;-78
2021/08/09 08:25:29;;;;;;;;;;;;;;;18.61;100.00;98265.00;5056428;28;20353;-78
2021/08/09 08:27:56;;;;;;;;;;;;;;;18.60;100.00;98257.03;5049177;28;20711;-78
2021/08/09 08:30:24;;;;;;;;;;;;;;;18.52;100.00;98262.34;5071617;28;19932;-77
2021/08/09 08:32:53;;;;;;;;;;;;;;;18.84;100.00;98249.81;5038715;28;20015;-77
2021/08/09 08:35:21;;;;;;;;;;;;;;;18.93;100.00;98260.97;5040947;28;19932;-77
2021/08/09 08:37:48;;;;;;;;;;;;;;;18.93;100.00;98263.81;5073546;28;20031;-79
2021/08/09 08:40:17;;;;;;;;;;;;;;;19.08;100.00;98263.72;5051537;28;19929;-77
2021/08/09 08:42:47;;;;;;;;;;;;;;;18.81;100.00;98267.03;5069613;28;19925;-80
2021/08/09 08:45:16;;;;;;;;;;;;;;;18.61;100.00;98273.50;5052363;28;20023;-80
2021/08/09 08:47:44;;;;;;;;;;;;;;;18.31;100.00;98269.22;5082743;28;19925;-80
2021/08/09 08:50:15;;;;;;;;;;;;;;;18.16;100.00;98282.63;5061859;28;19953;-80
2021/08/09 08:52:47;;;;;;;;;;;;;;;18.05;100.00;98290.19;5074431;28;19928;-79
2021/08/09 08:55:18;;;;;;;;;;;;;;;18.02;100.00;98291.97;5067565;28;20364;-80
2021/08/09 08:57:46;;;;;;;;;;;;;;;17.74;100.00;98290.75;5066165;28;19925;-80
2021/08/09 09:00:15;;;;;;;;;;;;;;;17.60;100.00;98303.63;5052790;28;19924;-81
2021/08/09 09:02:46;;;;;;;;;;;;;;;17.94;100.00;98302.09;5078995;28;19925;-81
2021/08/09 09:05:30;;;;;;;;;;;;;;;17.88;100.00;98304.88;5057188;28;19931;-80
2021/08/09 09:07:59;;;;;;;;;;;;;;;18.01;100.00;98307.34;5061030;28;19983;-79
2021/08/09 09:10:42;;;;;;;;;;;;;;;17.94;100.00;98302.09;5082754;22;19979;-79
2021/08/09 09:13:16;;;;;;;;;;;;;;;18.10;100.00;98303.63;5030909;28;19932;-79
2021/08/09 09:16:03;;;;;;;;;;;;;;;18.20;100.00;98308.66;4997583;28;20027;-78
2021/08/09 09:18:52;;;;;;;;;;;;;;;18.51;100.00;98311.69;5029878;28;20007;-79
2021/08/09 09:21:24;;;;;;;;;;;;;;;18.37;100.00;98295.56;5010378;28;20011;-79
2021/08/09 09:23:55;;;;;;;;;;;;;;;18.72;100.00;98304.72;5033064;28;20364;-79
2021/08/09 09:26:24;;;;;;;;;;;;;;;18.38;100.00;98296.31;5034273;28;19929;-77
2021/08/09 09:28:52;;;;;;;;;;;;;;;18.44;100.00;98306.44;5016912;28;19926;-77
2021/08/09 09:31:26;;;;;;;;;;;;;;;18.54;100.00;98307.09;5030216;28;19929;-77
2021/08/09 09:33:53;;;;;;;;;;;;;;;18.50;100.00;98303.69;5031160;28;19925;-77
2021/08/09 09:36:22;;;;;;;;;;;;;;;18.46;100.00;98303.91;5034467;28;19925;-76
2021/08/09 09:38:51;;;;;;;;;;;;;;;18.69;100.00;98304.97;5029070;28;19925;-77
2021/08/09 09:41:22;;;;;;;;;;;;;;;19.12;100.00;98298.25;5046766;28;20269;-77
2021/08/09 09:43:49;;;;;;;;;;;;;;;19.21;100.00;98298.84;4997301;28;19926;-78
2021/08/09 09:46:22;;;;;;;;;;;;;;;19.22;100.00;98303.22;4998106;28;19929;-79
2021/08/09 09:48:49;;;;;;;;;;;;;;;19.29;100.00;98302.06;5038517;28;19931;-79
2021/08/09 09:51:17;;;;;;;;;;;;;;;19.55;100.00;98295.06;5005412;28;20491;-78
2021/08/09 09:53:46;;;;;;;;;;;;;;;19.84;100.00;98282.69;5010911;28;19926;-78
2021/08/09 09:56:13;;;;;;;;;;;;;;;19.16;100.00;98288.25;5026225;28;20508;-77
2021/08/09 09:58:40;;;;;;;;;;;;;;;18.65;100.00;98288.19;5028516;28;19935;-78
2021/08/09 10:01:08;;;;;;;;;;;;;;;19.08;100.00;98292.81;5032377;28;19925;-76
2021/08/09 10:03:36;;;;;;;;;;;;;;;18.99;100.00;98283.69;5049322;28;19964;-75
2021/08/09 10:06:04;;;;;;;;;;;;;;;18.90;100.00;98287.44;5034825;28;19932;-75
2021/08/09 10:08:46;;;;;;;;;;;;;;;19.29;100.00;98294.34;5024210;28;19987;-75
2021/08/09 10:11:13;;;;;;;;;;;;;;;20.03;100.00;98289.53;5025122;28;19925;-75
2021/08/09 10:13:55;;;;;;;;;;;;;;;20.05;100.00;98294.69;5009573;28;20025;-77
2021/08/09 10:19:21;;;;;;;;;;;;;;;19.61;100.00;98292.31;5025107;28;19952;-75
2021/08/09 10:21:50;;;;;;;;;;;;;;;19.79;100.00;98289.09;5013755;28;19925;-75
2021/08/09 10:24:37;;;;;;;;;;;;;;;20.03;100.00;98280.22;5009303;28;19932;-75
2021/08/09 10:27:05;;;;;;;;;;;;;;;20.42;100.00;98279.19;5015678;28;19971;-75
2021/08/09 10:29:32;;;;;;;;;;;;;;;20.26;100.00;98290.47;5005127;28;20270;-78
2021/08/09 10:32:21;;;;;;;;;;;;;;;20.32;100.00;98292.06;4988223;28;19934;-77
2021/08/09 10:34:48;;;;;;;;;;;;;;;20.60;100.00;98283.69;4998622;28;19926;-75
2021/08/09 10:37:16;;;;;;;;;;;;;;;20.93;100.00;98284.53;4996614;28;19929;-75
2021/08/09 10:40:02;;;;;;;;;;;;;;;21.20;100.00;98285.94;4990937;28;19938;-75
2021/08/09 10:42:29;;;;;;;;;;;;;;;21.03;100.00;98283.06;4992166;28;19925;-75
2021/08/09 10:44:57;;;;;;;;;;;;;;;20.70;100.00;98279.31;5020084;28;19977;-76
2021/08/09 10:47:42;;;;;;;;;;;;;;;20.17;100.00;98279.31;5011555;28;19926;-77
2021/08/09 10:50:09;;;;;;;;;;;;;;;20.61;100.00;98293.75;5015585;28;19932;-77
2021/08/09 10:52:40;;;;;;;;;;;;;;;21.12;100.00;98293.41;5020443;28;19976;-77
2021/08/09 10:55:29;;;;;;;;;;;;;;;20.55;100.00;98276.69;5014795;28;19926;-79
2021/08/09 10:58:00;;;;;;;;;;;;;;;21.02;100.00;98294.94;5008034;28;20353;-78
2021/08/09 11:00:42;;;;;;;;;;;;;;;21.32;100.00;98288.31;5029309;28;19980;-78
2021/08/09 11:03:10;;;;;;;;;;;;;;;21.38;100.00;98291.13;5031558;28;20296;-79
2021/08/09 11:05:38;;;;;;;;;;;;;;;21.90;100.00;98292.19;4999385;28;19925;-78
2021/08/09 11:08:23;;;;;;;;;;;;;;;21.90;100.00;98297.88;5031817;28;20380;-78
2021/08/09 11:10:57;;;;;;;;;;;;;;;21.35;100.00;98289.34;4969414;28;19925;-78
2021/08/09 11:13:25;;;;;;;;;;;;;;;21.33;100.00;98295.53;5028095;28;19925;-78
2021/08/09 11:15:52;;;;;;;;;;;;;;;21.12;100.00;98299.09;5015726;28;19925;-78
2021/08/09 11:18:20;;;;;;;;;;;;;;;21.53;100.00;98303.03;5032078;28;20023;-78
2021/08/09 11:20:47;;;;;;;;;;;;;;;21.35;100.00;98300.69;5032124;28;19979;-78
2021/08/09 11:23:15;;;;;;;;;;;;;;;20.68;100.00;98302.53;5033497;28;19948;-78
2021/08/09 11:25:48;;;;;;;;;;;;;;;20.73;100.00;98310.31;5031920;28;20260;-79
2021/08/09 11:28:22;;;;;;;;;;;;;;;20.73;100.00;98309.53;5026614;28;20042;-78
2021/08/09 11:30:53;;;;;;;;;;;;;;;21.04;100.00;98310.19;5032956;28;19925;-78
2021/08/09 11:33:22;;;;;;;;;;;;;;;21.55;100.00;98305.38;5032023;28;19932;-78
2021/08/09 11:35:49;;;;;;;;;;;;;;;21.18;100.00;98311.25;5023184;28;20343;-78
2021/08/09 11:38:17;;;;;;;;;;;;;;;21.09;100.00;98311.47;5001705;28;19929;-78
2021/08/09 11:40:46;;;;;;;;;;;;;;;20.71;100.00;98312.88;5012900;28;19932;-80
2021/08/09 11:43:14;;;;;;;;;;;;;;;20.59;100.00;98313.31;4991581;28;19937;-79
2021/08/09 11:45:41;;;;;;;;;;;;;;;20.68;100.00;98316.72;5008555;28;20395;-78
2021/08/09 11:48:09;;;;;;;;;;;;;;;21.25;100.00;98317.19;4984240;28;19926;-76
2021/08/09 11:50:40;;;;;;;;;;;;;;;21.14;100.00;98317.16;5007713;28;19937;-79
2021/08/09 11:53:08;;;;;;;;;;;;;;;21.73;100.00;98311.31;5011262;28;19929;-78
2021/08/09 11:55:36;;;;;;;;;;;;;;;22.22;100.00;98319.06;5011106;28;19933;-79
2021/08/09 11:58:03;;;;;;;;;;;;;;;21.61;100.00;98304.09;5025880;28;19936;-80
2021/08/09 12:00:40;;;;;;;;;;;;;;;21.43;100.00;98311.03;5012387;28;19929;-81
2021/08/09 12:03:11;;;;;;;;;;;;;;;21.94;100.00;98309.78;5016546;28;19929;-80
2021/08/09 12:05:39;;;;;;;;;;;;;;;21.88;100.00;98314.72;5026411;28;19933;-81
2021/08/09 12:08:07;;;;;;;;;;;;;;;22.18;100.00;98323.47;4995943;28;19982;-82
2021/08/09 12:10:36;;;;;;;;;;;;;;;21.36;100.00;98313.59;5001858;28;19991;-81
2021/08/09 12:13:04;;;;;;;;;;;;;;;21.67;100.00;98316.22;5029941;28;19951;-81
2021/08/09 12:15:31;;;;;;;;;;;;;;;21.24;100.00;98326.22;5031754;28;19925;-81
2021/08/09 12:18:02;;;;;;;;;;;;;;;20.96;100.00;98319.72;5013979;28;19926;-81
2021/08/09 12:20:32;;;;;;;;;;;;;;;21.10;100.00;98322.31;5012724;28;19927;-81
2021/08/09 12:22:59;;;;;;;;;;;;;;;21.45;100.00;98326.81;5014491;28;20384;-81
2021/08/09 12:25:37;;;;;;;;;;;;;;;21.31;100.00;98326.50;5025988;28;20369;-81
2021/08/09 12:28:06;;;;;;;;;;;;;;;20.05;100.00;98323.03;5014174;28;19951;-81
2021/08/09 12:30:53;;;;;;;;;;;;;;;19.84;100.00;98324.44;5013921;28;19925;-81
2021/08/09 12:33:21;;;;;;;;;;;;;;;20.40;100.00;98332.81;5015523;28;19933;-81
2021/08/09 12:35:48;;;;;;;;;;;;;;;20.85;100.00;98328.94;5015486;28;20312;-81
2021/08/09 12:38:15;;;;;;;;;;;;;;;21.01;100.00;98324.63;4982795;28;20365;-80
2021/08/09 12:40:45;;;;;;;;;;;;;;;20.77;100.00;98316.50;5002836;28;20372;-80
2021/08/09 12:43:14;;;;;;;;;;;;;;;21.38;100.00;98319.56;5000361;28;19964;-81
2021/08/09 12:45:42;;;;;;;;;;;;;;;21.54;100.00;98327.31;5017790;28;20016;-81
2021/08/09 12:48:10;;;;;;;;;;;;;;;21.70;100.00;98320.88;5017214;28;19925;-81
2021/08/09 12:50:38;;;;;;;;;;;;;;;21.62;100.00;98305.63;5025538;28;19933;-82